Terminal Aerodrome Forecast
Issued by NWS

Home | Current Version | Previous Version | Text Only | Print | Product List | Glossary On
Versions: 1 2 3 4 5 6 7 8 9 10 11 12 13 14 15
000
FTUS45 KVEF 171900 AAA
TAFVGT
TAF AMD
KVGT 171926Z 1719/1818 VRB04KT P6SM FEW030 BKN050 OVC100
     FM172100 VRB05KT P6SM SCT030 BKN050 BKN100
     FM181500 34005KT P6SM SCT050 BKN100=

USA.gov is the U.S. government's official web portal to all federal, state and local government web resources and services.